AAL169 KMIA-KJFK
Flight info
| Callsign | AAL169 |
|---|---|
| Flight time | 2h 7m |
| Altitude | 33000 |
| Route | FOLZZ3 ALYRA PELCN Y309 FLRDA SAGGY CHIEZ Q161 KALDA Q108 SIE CAMRN5 |
| Aircraft | B77W/H-SDE1E2E3FGHIJ2J3J4J5M1RWXY/LB1D1 |
Departure
| Time | 2026-05-09 10:37 |
|---|---|
| Airport | Miami International Airport (KMIA) |
Arrival
| Time | 2026-05-09 12:44 |
|---|---|
| Airport | John F. Kennedy International Airport (KJFK) |
| Time | Latitude | Longitude | Altitude | Speed | Heading |
|---|---|---|---|---|---|
| 2026-05-09 10:17 | 25.79775 | -80.27955 | 18 ft | 0 kts | 178° |
| 2026-05-09 10:24 | 25.79781 | -80.27955 | 18 ft | 2 kts | 178° |
| 2026-05-09 10:24 | 25.79796 | -80.27956 | 18 ft | 2 kts | 177° |
| 2026-05-09 10:25 | 25.79811 | -80.27956 | 18 ft | 2 kts | 178° |
| 2026-05-09 10:25 | 25.79826 | -80.27957 | 18 ft | 2 kts | 178° |
| 2026-05-09 10:25 | 25.79841 | -80.27956 | 18 ft | 2 kts | 196° |
| 2026-05-09 10:25 | 25.79855 | -80.27949 | 18 ft | 2 kts | 213° |
| 2026-05-09 10:26 | 25.79867 | -80.27940 | 18 ft | 2 kts | 228° |
| 2026-05-09 10:26 | 25.79876 | -80.27926 | 18 ft | 2 kts | 244° |
| 2026-05-09 10:26 | 25.79881 | -80.27911 | 18 ft | 2 kts | 259° |
| 2026-05-09 10:26 | 25.79882 | -80.27895 | 18 ft | 2 kts | 270° |
| 2026-05-09 10:27 | 25.79882 | -80.27878 | 18 ft | 2 kts | 269° |
| 2026-05-09 10:27 | 25.79883 | -80.27861 | 18 ft | 2 kts | 267° |
| 2026-05-09 10:27 | 25.79884 | -80.27844 | 18 ft | 2 kts | 267° |
| 2026-05-09 10:27 | 25.79884 | -80.27828 | 18 ft | 2 kts | 268° |
| 2026-05-09 10:28 | 25.79885 | -80.27814 | 18 ft | 0 kts | 268° |
| 2026-05-09 10:30 | 25.79884 | -80.27825 | 18 ft | 2 kts | 268° |
| 2026-05-09 10:30 | 25.79884 | -80.27860 | 18 ft | 5 kts | 276° |
| 2026-05-09 10:30 | 25.79912 | -80.27892 | 18 ft | 6 kts | 355° |
| 2026-05-09 10:31 | 25.79963 | -80.27904 | 18 ft | 7 kts | 302° |
| 2026-05-09 10:31 | 25.79967 | -80.27979 | 18 ft | 11 kts | 268° |
| 2026-05-09 10:31 | 25.79963 | -80.28073 | 18 ft | 13 kts | 268° |
| 2026-05-09 10:31 | 25.79959 | -80.28183 | 18 ft | 15 kts | 268° |
| 2026-05-09 10:32 | 25.79954 | -80.28305 | 18 ft | 16 kts | 268° |
| 2026-05-09 10:32 | 25.79949 | -80.28439 | 18 ft | 18 kts | 268° |
| 2026-05-09 10:32 | 25.79943 | -80.28584 | 18 ft | 19 kts | 268° |
| 2026-05-09 10:32 | 25.79936 | -80.28735 | 18 ft | 20 kts | 268° |
| 2026-05-09 10:33 | 25.79930 | -80.28896 | 18 ft | 21 kts | 267° |
| 2026-05-09 10:33 | 25.79923 | -80.29056 | 18 ft | 20 kts | 267° |
| 2026-05-09 10:33 | 25.79916 | -80.29209 | 18 ft | 18 kts | 267° |
| 2026-05-09 10:33 | 25.79911 | -80.29345 | 18 ft | 17 kts | 268° |
| 2026-05-09 10:34 | 25.79906 | -80.29473 | 18 ft | 16 kts | 267° |
| 2026-05-09 10:34 | 25.79895 | -80.29742 | 18 ft | 18 kts | 268° |
| 2026-05-09 10:34 | 25.79891 | -80.29890 | 18 ft | 18 kts | 279° |
| 2026-05-09 10:35 | 25.79943 | -80.30009 | 18 ft | 16 kts | 300° |
| 2026-05-09 10:35 | 25.79996 | -80.30109 | 18 ft | 13 kts | 311° |
| 2026-05-09 10:35 | 25.80065 | -80.30120 | 18 ft | 6 kts | 51° |
| 2026-05-09 10:35 | 25.80072 | -80.30080 | 18 ft | 0 kts | 87° |
| 2026-05-09 10:36 | 25.80073 | -80.30059 | 18 ft | 9 kts | 87° |
| 2026-05-09 10:36 | 25.80085 | -80.29802 | 18 ft | 66 kts | 88° |
| 2026-05-09 10:37 | 25.80116 | -80.29044 | 18 ft | 130 kts | 87° |
| 2026-05-09 10:37 | 25.80168 | -80.27816 | 22 ft | 184 kts | 86° |
| 2026-05-09 10:37 | 25.80231 | -80.26323 | 367 ft | 202 kts | 87° |
| 2026-05-09 10:37 | 25.80204 | -80.24773 | 1145 ft | 203 kts | 101° |
| 2026-05-09 10:38 | 25.79698 | -80.23321 | 1707 ft | 205 kts | 125° |
| 2026-05-09 10:38 | 25.78874 | -80.22010 | 2208 ft | 212 kts | 126° |
| 2026-05-09 10:38 | 25.78085 | -80.20614 | 2718 ft | 219 kts | 121° |
| 2026-05-09 10:38 | 25.77297 | -80.19032 | 3087 ft | 236 kts | 120° |
| 2026-05-09 10:39 | 25.76475 | -80.17369 | 3555 ft | 250 kts | 119° |
| 2026-05-09 10:39 | 25.75621 | -80.15636 | 4085 ft | 261 kts | 119° |
| 2026-05-09 10:39 | 25.74752 | -80.13854 | 4795 ft | 265 kts | 115° |
| 2026-05-09 10:39 | 25.74304 | -80.11881 | 5377 ft | 272 kts | 90° |
| 2026-05-09 10:40 | 25.74708 | -80.09814 | 6026 ft | 276 kts | 63° |
| 2026-05-09 10:40 | 25.75813 | -80.08054 | 6721 ft | 278 kts | 50° |
| 2026-05-09 10:40 | 25.77092 | -80.06424 | 7355 ft | 282 kts | 49° |
| 2026-05-09 10:40 | 25.78402 | -80.04781 | 7920 ft | 289 kts | 49° |
| 2026-05-09 10:41 | 25.79736 | -80.03097 | 8532 ft | 294 kts | 49° |
| 2026-05-09 10:41 | 25.81093 | -80.01379 | 9165 ft | 297 kts | 49° |
| 2026-05-09 10:41 | 25.82468 | -79.99632 | 9744 ft | 302 kts | 49° |
| 2026-05-09 10:41 | 25.83867 | -79.97856 | 10286 ft | 309 kts | 49° |
| 2026-05-09 10:42 | 25.85328 | -79.95998 | 10592 ft | 326 kts | 49° |
| 2026-05-09 10:42 | 25.86870 | -79.94039 | 10879 ft | 344 kts | 49° |
| 2026-05-09 10:42 | 25.88496 | -79.91971 | 11204 ft | 360 kts | 49° |
| 2026-05-09 10:42 | 25.90175 | -79.89835 | 11517 ft | 376 kts | 49° |
| 2026-05-09 10:43 | 25.91929 | -79.87601 | 11854 ft | 391 kts | 49° |
| 2026-05-09 10:43 | 25.93738 | -79.85298 | 12212 ft | 405 kts | 49° |
| 2026-05-09 10:43 | 25.95610 | -79.82912 | 12735 ft | 413 kts | 49° |
| 2026-05-09 10:43 | 25.97511 | -79.80490 | 13406 ft | 418 kts | 49° |
| 2026-05-09 10:44 | 25.99440 | -79.78033 | 14085 ft | 422 kts | 48° |
| 2026-05-09 10:44 | 26.01337 | -79.75569 | 14815 ft | 425 kts | 49° |
| 2026-05-09 10:44 | 26.03290 | -79.73071 | 15485 ft | 431 kts | 47° |
| 2026-05-09 10:44 | 26.05256 | -79.70572 | 16142 ft | 436 kts | 47° |
| 2026-05-09 10:45 | 26.07258 | -79.68022 | 16884 ft | 439 kts | 47° |
| 2026-05-09 10:46 | 26.14888 | -79.57033 | 19521 ft | 457 kts | 52° |
| 2026-05-09 10:46 | 26.16740 | -79.54112 | 20185 ft | 461 kts | 52° |
| 2026-05-09 10:46 | 26.18581 | -79.51209 | 20759 ft | 466 kts | 52° |
| 2026-05-09 10:46 | 26.20459 | -79.48247 | 21385 ft | 470 kts | 51° |
| 2026-05-09 10:47 | 26.22344 | -79.45271 | 21990 ft | 474 kts | 51° |
| 2026-05-09 10:47 | 26.24250 | -79.42261 | 22583 ft | 478 kts | 51° |
| 2026-05-09 10:47 | 26.26175 | -79.39220 | 23161 ft | 482 kts | 51° |
| 2026-05-09 10:47 | 26.28262 | -79.36291 | 23680 ft | 482 kts | 43° |
| 2026-05-09 10:48 | 26.30708 | -79.33775 | 24138 ft | 482 kts | 33° |
| 2026-05-09 10:48 | 26.33472 | -79.31639 | 24589 ft | 484 kts | 28° |
| 2026-05-09 10:48 | 26.36297 | -79.29625 | 25134 ft | 486 kts | 28° |
| 2026-05-09 10:48 | 26.39169 | -79.27585 | 25646 ft | 490 kts | 28° |
| 2026-05-09 10:49 | 26.42064 | -79.25528 | 26140 ft | 494 kts | 28° |
| 2026-05-09 10:49 | 26.44988 | -79.23447 | 26581 ft | 499 kts | 28° |
| 2026-05-09 10:49 | 26.47914 | -79.21362 | 27063 ft | 502 kts | 28° |
| 2026-05-09 10:49 | 26.50900 | -79.19232 | 27525 ft | 507 kts | 28° |
| 2026-05-09 10:50 | 26.53892 | -79.17097 | 27958 ft | 511 kts | 28° |
| 2026-05-09 10:50 | 26.56935 | -79.14923 | 28401 ft | 515 kts | 28° |
| 2026-05-09 10:50 | 26.59962 | -79.12758 | 28875 ft | 518 kts | 28° |
| 2026-05-09 10:50 | 26.63005 | -79.10580 | 29330 ft | 521 kts | 28° |
| 2026-05-09 10:51 | 26.66045 | -79.08403 | 29912 ft | 521 kts | 28° |
| 2026-05-09 10:51 | 26.69083 | -79.06225 | 30640 ft | 518 kts | 27° |
| 2026-05-09 10:51 | 26.72107 | -79.04054 | 31364 ft | 514 kts | 27° |
| 2026-05-09 10:51 | 26.75110 | -79.01898 | 31980 ft | 512 kts | 27° |
| 2026-05-09 10:52 | 26.78136 | -78.99725 | 32513 ft | 512 kts | 27° |
| 2026-05-09 10:52 | 26.81143 | -78.97566 | 32946 ft | 513 kts | 27° |
| 2026-05-09 10:52 | 26.84150 | -78.95406 | 33008 ft | 515 kts | 27° |
| 2026-05-09 10:53 | 26.90421 | -78.90897 | 33009 ft | 529 kts | 27° |
| 2026-05-09 10:53 | 26.96727 | -78.86356 | 33010 ft | 542 kts | 27° |
| 2026-05-09 10:54 | 27.03094 | -78.81758 | 33009 ft | 542 kts | 27° |
| 2026-05-09 10:54 | 27.09482 | -78.77140 | 33010 ft | 542 kts | 27° |
| 2026-05-09 10:55 | 27.15804 | -78.72564 | 33013 ft | 542 kts | 27° |
| 2026-05-09 10:55 | 27.22218 | -78.67916 | 33015 ft | 543 kts | 27° |
| 2026-05-09 10:56 | 27.28949 | -78.64022 | 33010 ft | 530 kts | 13° |
| 2026-05-09 10:56 | 27.36055 | -78.62348 | 33019 ft | 521 kts | 0° |
| 2026-05-09 10:57 | 27.43313 | -78.61401 | 33015 ft | 517 kts | 360° |
| 2026-05-09 10:57 | 27.50486 | -78.60474 | 33013 ft | 517 kts | 360° |
| 2026-05-09 10:58 | 27.57725 | -78.59537 | 33016 ft | 518 kts | 360° |
| 2026-05-09 10:58 | 27.64908 | -78.58604 | 33015 ft | 518 kts | 360° |
| 2026-05-09 10:59 | 27.72071 | -78.57672 | 33015 ft | 519 kts | 360° |
| 2026-05-09 10:59 | 27.79370 | -78.56720 | 33016 ft | 518 kts | 360° |
| 2026-05-09 11:00 | 27.86581 | -78.55778 | 33013 ft | 517 kts | 359° |
| 2026-05-09 11:00 | 27.93808 | -78.54834 | 33017 ft | 519 kts | 359° |
| 2026-05-09 11:01 | 28.01053 | -78.53885 | 33016 ft | 517 kts | 359° |
| 2026-05-09 11:01 | 28.08268 | -78.52940 | 33018 ft | 518 kts | 359° |
| 2026-05-09 11:02 | 28.15511 | -78.51989 | 33006 ft | 519 kts | 359° |
| 2026-05-09 11:02 | 28.22749 | -78.51037 | 33014 ft | 519 kts | 359° |
| 2026-05-09 11:03 | 28.30023 | -78.50079 | 33008 ft | 519 kts | 359° |
| 2026-05-09 11:03 | 28.37261 | -78.49125 | 33006 ft | 518 kts | 359° |
| 2026-05-09 11:04 | 28.44485 | -78.48171 | 33008 ft | 518 kts | 359° |
| 2026-05-09 11:04 | 28.51722 | -78.47216 | 33007 ft | 518 kts | 359° |
| 2026-05-09 11:05 | 28.59047 | -78.46248 | 33011 ft | 521 kts | 359° |
| 2026-05-09 11:05 | 28.66260 | -78.45290 | 33008 ft | 520 kts | 359° |
| 2026-05-09 11:06 | 28.73515 | -78.44326 | 33008 ft | 518 kts | 359° |
| 2026-05-09 11:06 | 28.80711 | -78.43369 | 33017 ft | 518 kts | 358° |
| 2026-05-09 11:07 | 28.87907 | -78.42412 | 33010 ft | 519 kts | 358° |
| 2026-05-09 11:07 | 28.95070 | -78.41457 | 33009 ft | 518 kts | 358° |
| 2026-05-09 11:08 | 29.02237 | -78.40501 | 33010 ft | 521 kts | 358° |
| 2026-05-09 11:08 | 29.09535 | -78.39525 | 33010 ft | 521 kts | 358° |
| 2026-05-09 11:09 | 29.16719 | -78.38562 | 33000 ft | 518 kts | 358° |
| 2026-05-09 11:09 | 29.23874 | -78.37605 | 32998 ft | 522 kts | 358° |
| 2026-05-09 11:10 | 29.31062 | -78.36639 | 32999 ft | 519 kts | 358° |
| 2026-05-09 11:10 | 29.38249 | -78.35673 | 32998 ft | 520 kts | 358° |
| 2026-05-09 11:11 | 29.45450 | -78.34704 | 32978 ft | 522 kts | 358° |
| 2026-05-09 11:11 | 29.52639 | -78.34549 | 32984 ft | 512 kts | 348° |
| 2026-05-09 11:12 | 29.59717 | -78.35073 | 32977 ft | 507 kts | 348° |
| 2026-05-09 11:12 | 29.66790 | -78.35605 | 32973 ft | 509 kts | 347° |
| 2026-05-09 11:13 | 29.73894 | -78.36135 | 32975 ft | 510 kts | 347° |
| 2026-05-09 11:13 | 29.81009 | -78.36665 | 32982 ft | 509 kts | 347° |
| 2026-05-09 11:14 | 29.88051 | -78.37190 | 32986 ft | 509 kts | 347° |
| 2026-05-09 11:14 | 29.95179 | -78.37722 | 32987 ft | 510 kts | 347° |
| 2026-05-09 11:15 | 30.02248 | -78.38248 | 32987 ft | 508 kts | 347° |
| 2026-05-09 11:15 | 30.09314 | -78.38776 | 32983 ft | 509 kts | 347° |
| 2026-05-09 11:16 | 30.16519 | -78.38660 | 32984 ft | 522 kts | 358° |
| 2026-05-09 11:16 | 30.23764 | -78.37585 | 32986 ft | 525 kts | 358° |
| 2026-05-09 11:17 | 30.31010 | -78.36490 | 32980 ft | 528 kts | 358° |
| 2026-05-09 11:17 | 30.38301 | -78.35387 | 32982 ft | 523 kts | 358° |
| 2026-05-09 11:18 | 30.45591 | -78.34145 | 32990 ft | 533 kts | 2° |
| 2026-05-09 11:18 | 30.52879 | -78.32391 | 32985 ft | 534 kts | 2° |
| 2026-05-09 11:19 | 30.60231 | -78.30625 | 32980 ft | 530 kts | 2° |
| 2026-05-09 11:19 | 30.67505 | -78.28899 | 32983 ft | 532 kts | 2° |
| 2026-05-09 11:20 | 30.74773 | -78.27183 | 32987 ft | 533 kts | 2° |
| 2026-05-09 11:20 | 30.82026 | -78.25473 | 32982 ft | 531 kts | 2° |
| 2026-05-09 11:21 | 30.89276 | -78.23766 | 32981 ft | 532 kts | 1° |
| 2026-05-09 11:21 | 30.96487 | -78.22084 | 32983 ft | 529 kts | 1° |
| 2026-05-09 11:22 | 31.03742 | -78.20478 | 32983 ft | 526 kts | 1° |
| 2026-05-09 11:22 | 31.11028 | -78.18867 | 32985 ft | 532 kts | 1° |
| 2026-05-09 11:23 | 31.18344 | -78.17238 | 32983 ft | 528 kts | 0° |
| 2026-05-09 11:23 | 31.25588 | -78.15624 | 32983 ft | 529 kts | 1° |
| 2026-05-09 11:24 | 31.32838 | -78.14005 | 32981 ft | 529 kts | 0° |
| 2026-05-09 11:24 | 31.40176 | -78.12364 | 32980 ft | 529 kts | 0° |
| 2026-05-09 11:25 | 31.47459 | -78.10889 | 32989 ft | 527 kts | 358° |
| 2026-05-09 11:25 | 31.54736 | -78.09682 | 32991 ft | 527 kts | 357° |
| 2026-05-09 11:26 | 31.61990 | -78.08465 | 32983 ft | 523 kts | 357° |
| 2026-05-09 11:26 | 31.69271 | -78.07233 | 32984 ft | 526 kts | 358° |
| 2026-05-09 11:27 | 31.76574 | -78.05988 | 32985 ft | 527 kts | 358° |
| 2026-05-09 11:27 | 31.83871 | -78.04738 | 32985 ft | 524 kts | 358° |
| 2026-05-09 11:28 | 31.91083 | -78.03500 | 32989 ft | 528 kts | 357° |
| 2026-05-09 11:28 | 31.98390 | -78.02241 | 32990 ft | 526 kts | 357° |
| 2026-05-09 11:29 | 32.05650 | -78.00988 | 32994 ft | 525 kts | 357° |
| 2026-05-09 11:29 | 32.12882 | -77.99740 | 32991 ft | 528 kts | 357° |
| 2026-05-09 11:30 | 32.20145 | -77.98481 | 32993 ft | 525 kts | 357° |
| 2026-05-09 11:30 | 32.27420 | -77.97219 | 32996 ft | 527 kts | 357° |
| 2026-05-09 11:31 | 32.34673 | -77.95959 | 32991 ft | 526 kts | 357° |
| 2026-05-09 11:31 | 32.41949 | -77.94695 | 32985 ft | 532 kts | 357° |
| 2026-05-09 11:32 | 32.49229 | -77.93424 | 32994 ft | 529 kts | 357° |
| 2026-05-09 11:32 | 32.56559 | -77.92145 | 32995 ft | 532 kts | 357° |
| 2026-05-09 11:33 | 32.63824 | -77.90873 | 33000 ft | 530 kts | 357° |
| 2026-05-09 11:33 | 32.74810 | -77.88950 | 32998 ft | 535 kts | 357° |
| 2026-05-09 11:34 | 32.82180 | -77.87654 | 32988 ft | 533 kts | 357° |
| 2026-05-09 11:34 | 32.89483 | -77.86367 | 32998 ft | 529 kts | 357° |
| 2026-05-09 11:35 | 32.96810 | -77.85079 | 32990 ft | 534 kts | 357° |
| 2026-05-09 11:35 | 33.04119 | -77.83786 | 32998 ft | 530 kts | 356° |
| 2026-05-09 11:36 | 33.11498 | -77.82484 | 32995 ft | 532 kts | 357° |
| 2026-05-09 11:36 | 33.18864 | -77.81178 | 32992 ft | 532 kts | 357° |
| 2026-05-09 11:37 | 33.26240 | -77.79869 | 32997 ft | 530 kts | 357° |
| 2026-05-09 11:37 | 33.33548 | -77.78570 | 32987 ft | 530 kts | 357° |
| 2026-05-09 11:38 | 33.40879 | -77.77267 | 32998 ft | 533 kts | 357° |
| 2026-05-09 11:38 | 33.48216 | -77.75957 | 32992 ft | 530 kts | 357° |
| 2026-05-09 11:39 | 33.55535 | -77.74648 | 32994 ft | 528 kts | 357° |
| 2026-05-09 11:40 | 33.66509 | -77.72688 | 32982 ft | 532 kts | 357° |
| 2026-05-09 11:40 | 33.73809 | -77.71233 | 32984 ft | 532 kts | 359° |
| 2026-05-09 11:41 | 33.81191 | -77.69604 | 33000 ft | 537 kts | 359° |
| 2026-05-09 11:41 | 33.88531 | -77.67987 | 32978 ft | 532 kts | 359° |
| 2026-05-09 11:42 | 33.95890 | -77.66371 | 32985 ft | 535 kts | 359° |
| 2026-05-09 11:42 | 34.03226 | -77.64761 | 32984 ft | 534 kts | 359° |
| 2026-05-09 11:43 | 34.10530 | -77.63157 | 32984 ft | 533 kts | 359° |
| 2026-05-09 11:43 | 34.17814 | -77.61556 | 32992 ft | 532 kts | 359° |
| 2026-05-09 11:44 | 34.25146 | -77.59943 | 32989 ft | 533 kts | 359° |
| 2026-05-09 11:44 | 34.32502 | -77.58324 | 33006 ft | 536 kts | 359° |
| 2026-05-09 11:45 | 34.39920 | -77.56686 | 33002 ft | 537 kts | 359° |
| 2026-05-09 11:45 | 34.47340 | -77.55045 | 33006 ft | 536 kts | 359° |
| 2026-05-09 11:46 | 34.54639 | -77.52342 | 32997 ft | 558 kts | 14° |
| 2026-05-09 11:46 | 34.61754 | -77.48151 | 33012 ft | 567 kts | 16° |
| 2026-05-09 11:47 | 34.68825 | -77.43903 | 33009 ft | 567 kts | 15° |
| 2026-05-09 11:47 | 34.76051 | -77.39562 | 33015 ft | 572 kts | 15° |
| 2026-05-09 11:48 | 34.83221 | -77.35243 | 33019 ft | 571 kts | 15° |
| 2026-05-09 11:48 | 34.90431 | -77.30898 | 32991 ft | 573 kts | 16° |
| 2026-05-09 11:49 | 34.97615 | -77.26559 | 32993 ft | 572 kts | 16° |
| 2026-05-09 11:49 | 35.04788 | -77.22221 | 32999 ft | 575 kts | 16° |
| 2026-05-09 11:50 | 35.12017 | -77.17837 | 32996 ft | 573 kts | 16° |
| 2026-05-09 11:50 | 35.19256 | -77.13444 | 32995 ft | 577 kts | 16° |
| 2026-05-09 11:51 | 35.26530 | -77.09015 | 33005 ft | 576 kts | 16° |
| 2026-05-09 11:51 | 35.33754 | -77.04610 | 32999 ft | 574 kts | 16° |
| 2026-05-09 11:52 | 35.40947 | -77.00215 | 33004 ft | 574 kts | 16° |
| 2026-05-09 11:52 | 35.48150 | -76.95805 | 33005 ft | 570 kts | 16° |
| 2026-05-09 11:53 | 35.55284 | -76.91430 | 33013 ft | 573 kts | 16° |
| 2026-05-09 11:53 | 35.62472 | -76.87034 | 33010 ft | 568 kts | 16° |
| 2026-05-09 11:54 | 35.69598 | -76.82709 | 33007 ft | 572 kts | 16° |
| 2026-05-09 11:54 | 35.76791 | -76.78330 | 33013 ft | 572 kts | 16° |
| 2026-05-09 11:55 | 35.83963 | -76.73953 | 33012 ft | 569 kts | 16° |
| 2026-05-09 11:56 | 36.05251 | -76.60075 | 33022 ft | 575 kts | 18° |
| 2026-05-09 11:57 | 36.12197 | -76.55356 | 33028 ft | 573 kts | 18° |
| 2026-05-09 11:57 | 36.19210 | -76.50592 | 33018 ft | 572 kts | 19° |
| 2026-05-09 11:58 | 36.26202 | -76.45840 | 33014 ft | 574 kts | 19° |
| 2026-05-09 11:58 | 36.33218 | -76.41063 | 33020 ft | 572 kts | 19° |
| 2026-05-09 11:59 | 36.40225 | -76.36285 | 33011 ft | 572 kts | 19° |
| 2026-05-09 11:59 | 36.47230 | -76.31499 | 33008 ft | 574 kts | 19° |
| 2026-05-09 12:00 | 36.54295 | -76.26662 | 33009 ft | 573 kts | 19° |
| 2026-05-09 12:00 | 36.61279 | -76.21871 | 33007 ft | 572 kts | 19° |
| 2026-05-09 12:01 | 36.68296 | -76.17049 | 32998 ft | 575 kts | 20° |
| 2026-05-09 12:01 | 36.75317 | -76.12211 | 33007 ft | 573 kts | 19° |
| 2026-05-09 12:02 | 36.82300 | -76.07393 | 33009 ft | 574 kts | 19° |
| 2026-05-09 12:02 | 36.89351 | -76.02513 | 33015 ft | 573 kts | 19° |
| 2026-05-09 12:03 | 36.96324 | -75.97681 | 33027 ft | 572 kts | 19° |
| 2026-05-09 12:03 | 37.03315 | -75.92824 | 33027 ft | 572 kts | 20° |
| 2026-05-09 12:04 | 37.10422 | -75.88494 | 33019 ft | 555 kts | 8° |
| 2026-05-09 12:04 | 37.17778 | -75.85824 | 33017 ft | 547 kts | 4° |
| 2026-05-09 12:05 | 37.25186 | -75.83274 | 33012 ft | 546 kts | 5° |
| 2026-05-09 12:05 | 37.32523 | -75.80736 | 33011 ft | 545 kts | 5° |
| 2026-05-09 12:06 | 37.39848 | -75.78194 | 33016 ft | 546 kts | 5° |
| 2026-05-09 12:06 | 37.47213 | -75.75626 | 33019 ft | 546 kts | 5° |
| 2026-05-09 12:07 | 37.54490 | -75.73084 | 33019 ft | 543 kts | 5° |
| 2026-05-09 12:07 | 37.61830 | -75.70513 | 33038 ft | 543 kts | 5° |
| 2026-05-09 12:08 | 37.69104 | -75.67960 | 33021 ft | 540 kts | 5° |
| 2026-05-09 12:08 | 37.76396 | -75.65397 | 33024 ft | 541 kts | 5° |
| 2026-05-09 12:09 | 37.83631 | -75.62451 | 33022 ft | 554 kts | 15° |
| 2026-05-09 12:09 | 37.87065 | -75.60151 | 33009 ft | 569 kts | 24° |
| 2026-05-09 12:09 | 37.90384 | -75.57363 | 33012 ft | 573 kts | 26° |
| 2026-05-09 12:10 | 38.03486 | -75.45885 | 32999 ft | 570 kts | 26° |
| 2026-05-09 12:11 | 38.10092 | -75.40295 | 33002 ft | 566 kts | 24° |
| 2026-05-09 12:11 | 38.16768 | -75.34879 | 33010 ft | 565 kts | 25° |
| 2026-05-09 12:12 | 38.23474 | -75.29829 | 33001 ft | 554 kts | 16° |
| 2026-05-09 12:12 | 38.27091 | -75.28067 | 32994 ft | 543 kts | 7° |
| 2026-05-09 12:12 | 38.30751 | -75.26967 | 33010 ft | 531 kts | 1° |
| 2026-05-09 12:13 | 38.38074 | -75.25397 | 32999 ft | 529 kts | 0° |
| 2026-05-09 12:13 | 38.45393 | -75.23860 | 33002 ft | 528 kts | 0° |
| 2026-05-09 12:14 | 38.52659 | -75.22333 | 32996 ft | 526 kts | 0° |
| 2026-05-09 12:14 | 38.59932 | -75.20808 | 32989 ft | 528 kts | 0° |
| 2026-05-09 12:15 | 38.67188 | -75.18999 | 32980 ft | 535 kts | 8° |
| 2026-05-09 12:15 | 38.70726 | -75.17283 | 32980 ft | 549 kts | 17° |
| 2026-05-09 12:15 | 38.74154 | -75.14863 | 32973 ft | 560 kts | 26° |
| 2026-05-09 12:16 | 38.80482 | -75.08813 | 32982 ft | 565 kts | 31° |
| 2026-05-09 12:16 | 38.86674 | -75.02683 | 32983 ft | 563 kts | 31° |
| 2026-05-09 12:17 | 38.92902 | -74.96524 | 32984 ft | 561 kts | 31° |
| 2026-05-09 12:17 | 38.99156 | -74.90339 | 32996 ft | 562 kts | 31° |
| 2026-05-09 12:18 | 39.05379 | -74.84177 | 32997 ft | 561 kts | 31° |
| 2026-05-09 12:18 | 39.11564 | -74.77992 | 33004 ft | 563 kts | 33° |
| 2026-05-09 12:18 | 39.14563 | -74.74760 | 32752 ft | 564 kts | 34° |
| 2026-05-09 12:19 | 39.17578 | -74.71475 | 32317 ft | 558 kts | 34° |
| 2026-05-09 12:19 | 39.20531 | -74.68256 | 31887 ft | 551 kts | 34° |
| 2026-05-09 12:19 | 39.23450 | -74.65077 | 31441 ft | 546 kts | 34° |
| 2026-05-09 12:19 | 39.26328 | -74.61945 | 30971 ft | 539 kts | 35° |
| 2026-05-09 12:20 | 39.29213 | -74.58804 | 30492 ft | 533 kts | 35° |
| 2026-05-09 12:20 | 39.32026 | -74.55742 | 29983 ft | 527 kts | 35° |
| 2026-05-09 12:20 | 39.34840 | -74.52676 | 29267 ft | 520 kts | 35° |
| 2026-05-09 12:20 | 39.37579 | -74.49689 | 28662 ft | 506 kts | 35° |
| 2026-05-09 12:21 | 39.40261 | -74.46763 | 28076 ft | 493 kts | 35° |
| 2026-05-09 12:21 | 39.42856 | -74.43930 | 27494 ft | 483 kts | 35° |
| 2026-05-09 12:21 | 39.45415 | -74.41137 | 26953 ft | 483 kts | 35° |
| 2026-05-09 12:21 | 39.48008 | -74.38309 | 26414 ft | 488 kts | 35° |
| 2026-05-09 12:22 | 39.50623 | -74.35450 | 25821 ft | 486 kts | 35° |
| 2026-05-09 12:22 | 39.53198 | -74.32631 | 25224 ft | 483 kts | 36° |
| 2026-05-09 12:22 | 39.55746 | -74.29840 | 24624 ft | 481 kts | 36° |
| 2026-05-09 12:22 | 39.58289 | -74.27050 | 24033 ft | 479 kts | 36° |
| 2026-05-09 12:23 | 39.60842 | -74.24246 | 23439 ft | 476 kts | 36° |
| 2026-05-09 12:23 | 39.63341 | -74.21500 | 22867 ft | 474 kts | 36° |
| 2026-05-09 12:23 | 39.65842 | -74.18749 | 22292 ft | 472 kts | 36° |
| 2026-05-09 12:23 | 39.68337 | -74.16003 | 21715 ft | 469 kts | 36° |
| 2026-05-09 12:24 | 39.70839 | -74.13244 | 21045 ft | 464 kts | 36° |
| 2026-05-09 12:24 | 39.73248 | -74.10583 | 20472 ft | 451 kts | 36° |
| 2026-05-09 12:24 | 39.75629 | -74.07951 | 19900 ft | 439 kts | 36° |
| 2026-05-09 12:24 | 39.77910 | -74.05427 | 19342 ft | 428 kts | 36° |
| 2026-05-09 12:25 | 39.80139 | -74.02960 | 18782 ft | 418 kts | 36° |
| 2026-05-09 12:25 | 39.82335 | -74.00528 | 18217 ft | 409 kts | 35° |
| 2026-05-09 12:25 | 39.84561 | -73.98323 | 17658 ft | 395 kts | 25° |
| 2026-05-09 12:25 | 39.86900 | -73.96590 | 17110 ft | 385 kts | 22° |
| 2026-05-09 12:26 | 39.89230 | -73.94945 | 16556 ft | 378 kts | 22° |
| 2026-05-09 12:26 | 39.91530 | -73.93322 | 15997 ft | 372 kts | 23° |
| 2026-05-09 12:26 | 39.93786 | -73.91728 | 15439 ft | 366 kts | 23° |
| 2026-05-09 12:26 | 39.96015 | -73.90151 | 14877 ft | 361 kts | 23° |
| 2026-05-09 12:27 | 39.98191 | -73.88611 | 14322 ft | 356 kts | 24° |
| 2026-05-09 12:27 | 40.00389 | -73.87053 | 13753 ft | 352 kts | 24° |
| 2026-05-09 12:27 | 40.02474 | -73.85358 | 13280 ft | 356 kts | 33° |
| 2026-05-09 12:27 | 40.04462 | -73.83392 | 12833 ft | 356 kts | 34° |
| 2026-05-09 12:28 | 40.06458 | -73.81396 | 12386 ft | 356 kts | 34° |
| 2026-05-09 12:28 | 40.08407 | -73.79445 | 11949 ft | 356 kts | 35° |
| 2026-05-09 12:28 | 40.10389 | -73.77460 | 11505 ft | 356 kts | 35° |
| 2026-05-09 12:28 | 40.12358 | -73.75489 | 11085 ft | 355 kts | 35° |
| 2026-05-09 12:29 | 40.14302 | -73.73540 | 10977 ft | 343 kts | 35° |
| 2026-05-09 12:29 | 40.16163 | -73.71672 | 10968 ft | 328 kts | 35° |
| 2026-05-09 12:29 | 40.17930 | -73.69899 | 10967 ft | 319 kts | 35° |
| 2026-05-09 12:29 | 40.19707 | -73.68117 | 10976 ft | 320 kts | 35° |
| 2026-05-09 12:30 | 40.21452 | -73.66366 | 10974 ft | 320 kts | 35° |
| 2026-05-09 12:30 | 40.23245 | -73.64565 | 10977 ft | 319 kts | 35° |
| 2026-05-09 12:30 | 40.26757 | -73.61031 | 10969 ft | 320 kts | 34° |
| 2026-05-09 12:31 | 40.28543 | -73.59233 | 10985 ft | 321 kts | 35° |
| 2026-05-09 12:31 | 40.32107 | -73.55724 | 10959 ft | 320 kts | 25° |
| 2026-05-09 12:31 | 40.34188 | -73.54706 | 10982 ft | 319 kts | 9° |
| 2026-05-09 12:32 | 40.36362 | -73.54102 | 10979 ft | 315 kts | 5° |
| 2026-05-09 12:32 | 40.38501 | -73.53586 | 10953 ft | 315 kts | 5° |
| 2026-05-09 12:32 | 40.40698 | -73.53060 | 10568 ft | 318 kts | 6° |
| 2026-05-09 12:32 | 40.42901 | -73.52526 | 10140 ft | 318 kts | 5° |
| 2026-05-09 12:33 | 40.45085 | -73.51994 | 9731 ft | 319 kts | 6° |
| 2026-05-09 12:33 | 40.47266 | -73.51462 | 9301 ft | 320 kts | 6° |
| 2026-05-09 12:33 | 40.49473 | -73.50922 | 8877 ft | 321 kts | 6° |
| 2026-05-09 12:33 | 40.51691 | -73.50380 | 8446 ft | 322 kts | 6° |
| 2026-05-09 12:34 | 40.53914 | -73.49836 | 8016 ft | 323 kts | 7° |
| 2026-05-09 12:34 | 40.56103 | -73.49300 | 7600 ft | 324 kts | 7° |
| 2026-05-09 12:34 | 40.58315 | -73.48757 | 7223 ft | 320 kts | 7° |
| 2026-05-09 12:34 | 40.60492 | -73.48222 | 6898 ft | 315 kts | 7° |
| 2026-05-09 12:35 | 40.62649 | -73.47692 | 6629 ft | 308 kts | 7° |
| 2026-05-09 12:35 | 40.64730 | -73.47181 | 6383 ft | 301 kts | 7° |
| 2026-05-09 12:35 | 40.66777 | -73.46677 | 6136 ft | 295 kts | 6° |
| 2026-05-09 12:35 | 40.68737 | -73.46007 | 5887 ft | 291 kts | 19° |
| 2026-05-09 12:36 | 40.70580 | -73.44920 | 5645 ft | 287 kts | 22° |
| 2026-05-09 12:36 | 40.72347 | -73.43788 | 5417 ft | 283 kts | 23° |
| 2026-05-09 12:36 | 40.74154 | -73.42814 | 5147 ft | 275 kts | 6° |
| 2026-05-09 12:36 | 40.75991 | -73.42850 | 4876 ft | 259 kts | 337° |
| 2026-05-09 12:37 | 40.77519 | -73.43902 | 4607 ft | 241 kts | 310° |
| 2026-05-09 12:37 | 40.78646 | -73.45523 | 4361 ft | 232 kts | 301° |
| 2026-05-09 12:37 | 40.79577 | -73.47209 | 4119 ft | 228 kts | 297° |
| 2026-05-09 12:37 | 40.80425 | -73.48957 | 3874 ft | 224 kts | 295° |
| 2026-05-09 12:38 | 40.81238 | -73.50706 | 3629 ft | 221 kts | 295° |
| 2026-05-09 12:38 | 40.81906 | -73.52511 | 3370 ft | 212 kts | 278° |
| 2026-05-09 12:38 | 40.81996 | -73.54389 | 3113 ft | 203 kts | 257° |
| 2026-05-09 12:38 | 40.81634 | -73.56155 | 2985 ft | 195 kts | 250° |
| 2026-05-09 12:39 | 40.81211 | -73.57878 | 2972 ft | 198 kts | 249° |
| 2026-05-09 12:39 | 40.80770 | -73.59581 | 2971 ft | 195 kts | 249° |
| 2026-05-09 12:39 | 40.80329 | -73.61262 | 2973 ft | 194 kts | 249° |
| 2026-05-09 12:39 | 40.79846 | -73.62935 | 2971 ft | 192 kts | 238° |
| 2026-05-09 12:40 | 40.78937 | -73.64136 | 2934 ft | 179 kts | 216° |
| 2026-05-09 12:40 | 40.77922 | -73.64985 | 2899 ft | 165 kts | 213° |
| 2026-05-09 12:40 | 40.76958 | -73.65745 | 2779 ft | 161 kts | 213° |
| 2026-05-09 12:40 | 40.75993 | -73.66504 | 2560 ft | 158 kts | 212° |
| 2026-05-09 12:41 | 40.75067 | -73.67230 | 2365 ft | 153 kts | 212° |
| 2026-05-09 12:41 | 40.74147 | -73.67952 | 2162 ft | 156 kts | 212° |
| 2026-05-09 12:41 | 40.73207 | -73.68689 | 1957 ft | 155 kts | 212° |
| 2026-05-09 12:41 | 40.72303 | -73.69398 | 1750 ft | 146 kts | 212° |
| 2026-05-09 12:42 | 40.71452 | -73.70064 | 1569 ft | 141 kts | 211° |
| 2026-05-09 12:42 | 40.70603 | -73.70731 | 1384 ft | 143 kts | 211° |
| 2026-05-09 12:42 | 40.69739 | -73.71406 | 1195 ft | 145 kts | 211° |
| 2026-05-09 12:42 | 40.68875 | -73.72083 | 1000 ft | 146 kts | 211° |
| 2026-05-09 12:43 | 40.67992 | -73.72778 | 780 ft | 147 kts | 210° |
| 2026-05-09 12:43 | 40.67115 | -73.73471 | 604 ft | 148 kts | 209° |
| 2026-05-09 12:43 | 40.66207 | -73.74171 | 439 ft | 150 kts | 210° |
| 2026-05-09 12:43 | 40.65304 | -73.74876 | 253 ft | 152 kts | 209° |
| 2026-05-09 12:44 | 40.64392 | -73.75592 | 47 ft | 153 kts | 210° |
| 2026-05-09 12:44 | 40.63557 | -73.76244 | 28 ft | 118 kts | 211° |
| 2026-05-09 12:44 | 40.62986 | -73.76689 | 28 ft | 73 kts | 210° |
| 2026-05-09 12:44 | 40.62677 | -73.76932 | 28 ft | 30 kts | 210° |
| 2026-05-09 12:45 | 40.62577 | -73.77035 | 28 ft | 15 kts | 257° |
| 2026-05-09 12:45 | 40.62580 | -73.77169 | 28 ft | 13 kts | 276° |
| 2026-05-09 12:45 | 40.62645 | -73.77238 | 28 ft | 12 kts | 344° |
| 2026-05-09 12:45 | 40.62725 | -73.77254 | 28 ft | 10 kts | 13° |
| 2026-05-09 12:46 | 40.62791 | -73.77207 | 28 ft | 10 kts | 30° |
| 2026-05-09 12:46 | 40.62853 | -73.77160 | 28 ft | 11 kts | 30° |
| 2026-05-09 12:46 | 40.62925 | -73.77103 | 28 ft | 12 kts | 30° |
| 2026-05-09 12:46 | 40.63005 | -73.77040 | 28 ft | 14 kts | 31° |
| 2026-05-09 12:47 | 40.63096 | -73.76972 | 28 ft | 15 kts | 20° |
| 2026-05-09 12:47 | 40.63206 | -73.76948 | 28 ft | 16 kts | 4° |
| 2026-05-09 12:47 | 40.63324 | -73.76945 | 28 ft | 17 kts | 1° |
| 2026-05-09 12:47 | 40.63449 | -73.76929 | 28 ft | 18 kts | 7° |
| 2026-05-09 12:48 | 40.63581 | -73.76919 | 28 ft | 19 kts | 0° |
| 2026-05-09 12:48 | 40.63717 | -73.76916 | 28 ft | 19 kts | 1° |
| 2026-05-09 12:48 | 40.63800 | -73.76967 | 28 ft | 14 kts | 307° |
| 2026-05-09 12:48 | 40.63863 | -73.77076 | 28 ft | 15 kts | 307° |
| 2026-05-09 12:49 | 40.63933 | -73.77195 | 28 ft | 16 kts | 307° |
| 2026-05-09 12:49 | 40.63992 | -73.77296 | 28 ft | 8 kts | 307° |
| 2026-05-09 12:49 | 40.64034 | -73.77370 | 28 ft | 10 kts | 307° |
| 2026-05-09 12:49 | 40.64029 | -73.77419 | 28 ft | 7 kts | 210° |
| 2026-05-09 12:50 | 40.63978 | -73.77458 | 28 ft | 10 kts | 211° |
| 2026-05-09 12:50 | 40.63906 | -73.77514 | 28 ft | 13 kts | 210° |
| 2026-05-09 12:50 | 40.63817 | -73.77584 | 28 ft | 16 kts | 211° |
| 2026-05-09 12:50 | 40.63757 | -73.77631 | 28 ft | 2 kts | 210° |
| 2026-05-09 12:51 | 40.63756 | -73.77631 | 28 ft | 0 kts | 210° |
| 2026-05-09 12:52 | 40.63737 | -73.77645 | 28 ft | 5 kts | 210° |
| 2026-05-09 12:53 | 40.63688 | -73.77684 | 28 ft | 10 kts | 211° |
| 2026-05-09 12:53 | 40.63611 | -73.77744 | 28 ft | 14 kts | 210° |
| 2026-05-09 12:53 | 40.63510 | -73.77824 | 28 ft | 18 kts | 211° |
| 2026-05-09 12:53 | 40.63412 | -73.77941 | 28 ft | 19 kts | 252° |
| 2026-05-09 12:54 | 40.63443 | -73.78116 | 28 ft | 20 kts | 301° |
| 2026-05-09 12:54 | 40.63518 | -73.78281 | 28 ft | 21 kts | 301° |
| 2026-05-09 12:54 | 40.63592 | -73.78445 | 28 ft | 20 kts | 300° |
| 2026-05-09 12:54 | 40.63663 | -73.78603 | 28 ft | 19 kts | 301° |
| 2026-05-09 12:55 | 40.63734 | -73.78757 | 28 ft | 19 kts | 301° |
| 2026-05-09 12:55 | 40.63805 | -73.78912 | 28 ft | 21 kts | 300° |
| 2026-05-09 12:55 | 40.63883 | -73.79087 | 28 ft | 22 kts | 301° |
| 2026-05-09 12:55 | 40.63964 | -73.79265 | 28 ft | 22 kts | 301° |
| 2026-05-09 12:56 | 40.64045 | -73.79442 | 28 ft | 22 kts | 304° |
| 2026-05-09 12:56 | 40.64182 | -73.79504 | 28 ft | 21 kts | 2° |
| 2026-05-09 12:56 | 40.64336 | -73.79492 | 28 ft | 22 kts | 3° |
| 2026-05-09 12:56 | 40.64492 | -73.79502 | 28 ft | 22 kts | 355° |
| 2026-05-09 12:57 | 40.64585 | -73.79515 | 28 ft | 8 kts | 12° |
| 2026-05-09 12:57 | 40.64610 | -73.79449 | 28 ft | 8 kts | 82° |
| 2026-05-09 12:57 | 40.64612 | -73.79356 | 28 ft | 12 kts | 101° |
| 2026-05-09 12:57 | 40.64617 | -73.79245 | 28 ft | 6 kts | 56° |
| 2026-05-09 12:58 | 40.64656 | -73.79231 | 28 ft | 6 kts | 348° |
| 2026-05-09 12:58 | 40.64685 | -73.79240 | 28 ft | 1 kts | 345° |
| 2026-05-09 12:58 | 40.64688 | -73.79241 | 28 ft | 0 kts | 345° |